createdAt,value
2022-08-22T00:02:42.144Z,18.05
2022-08-22T00:03:04.653Z,17.73
2022-08-22T00:04:10.636Z,14.86
2022-08-22T00:06:48.763Z,14.78
2022-08-22T00:09:29.764Z,14.72
2022-08-22T00:12:08.717Z,14.72
2022-08-22T00:14:42.560Z,14.58
2022-08-22T00:17:37.480Z,14.65
2022-08-22T00:20:14.218Z,14.62
2022-08-22T00:22:52.071Z,14.54
2022-08-22T00:25:36.683Z,14.51
2022-08-22T00:28:11.019Z,14.57
2022-08-22T00:30:48.703Z,14.40
2022-08-22T00:33:23.477Z,14.40
2022-08-22T00:36:03.819Z,14.40
2022-08-22T00:38:37.731Z,14.34
2022-08-22T00:41:11.546Z,14.32
2022-08-22T00:44:04.355Z,14.05
2022-08-22T00:46:54.687Z,14.13
2022-08-22T00:49:41.626Z,14.24
2022-08-22T00:52:31.046Z,14.24
2022-08-22T00:55:18.627Z,14.14
2022-08-22T00:58:13.307Z,14.10
2022-08-22T01:00:45.482Z,14.05
2022-08-22T01:03:41.559Z,13.98
2022-08-22T01:06:24.478Z,13.94
2022-08-22T01:09:04.204Z,13.91
2022-08-22T01:11:48.973Z,13.92
2022-08-22T01:14:34.867Z,13.87
2022-08-22T01:17:41.827Z,13.78
2022-08-22T01:20:40.217Z,13.75
2022-08-22T01:23:49.524Z,13.71
2022-08-22T01:26:48.650Z,13.68
2022-08-22T01:29:46.295Z,13.67
2022-08-22T01:32:44.662Z,13.66
2022-08-22T01:35:36.503Z,13.46
2022-08-22T01:38:25.528Z,13.54
2022-08-22T01:41:27.799Z,13.52
2022-08-22T01:44:10.259Z,13.44
2022-08-22T01:46:55.282Z,13.25
2022-08-22T01:49:27.623Z,13.32
2022-08-22T01:52:03.046Z,13.33
2022-08-22T01:54:46.064Z,13.31
2022-08-22T01:57:14.830Z,13.30
2022-08-22T01:59:45.515Z,13.23
2022-08-22T02:02:32.088Z,13.21
2022-08-22T02:05:07.319Z,13.17
2022-08-22T02:07:49.688Z,13.25
2022-08-22T02:10:24.350Z,13.22
2022-08-22T02:13:03.064Z,13.17
2022-08-22T02:15:45.440Z,13.12
2022-08-22T02:18:18.582Z,13.14
2022-08-22T02:21:00.315Z,13.15
2022-08-22T02:23:37.914Z,13.15
2022-08-22T02:26:10.787Z,13.12
2022-08-22T02:28:57.177Z,13.04
2022-08-22T02:31:38.170Z,13.01
2022-08-22T02:34:25.626Z,13.06
2022-08-22T02:37:11.323Z,13.10
2022-08-22T02:39:47.062Z,12.96
2022-08-22T02:42:25.040Z,12.90
2022-08-22T02:45:01.216Z,12.76
2022-08-22T02:47:36.539Z,12.78
2022-08-22T02:50:19.475Z,12.83
2022-08-22T02:52:58.558Z,12.75
2022-08-22T02:55:47.361Z,12.80
2022-08-22T02:58:23.139Z,12.87
2022-08-22T03:01:09.744Z,12.82
2022-08-22T03:03:41.673Z,12.83
2022-08-22T03:06:37.427Z,12.74
2022-08-22T03:09:19.887Z,12.76
2022-08-22T03:11:52.320Z,12.70
2022-08-22T03:14:27.591Z,12.74
2022-08-22T03:17:02.777Z,12.70
2022-08-22T03:19:44.826Z,12.70
2022-08-22T03:22:17.424Z,12.62
2022-08-22T03:24:54.104Z,12.59
2022-08-22T03:27:33.141Z,12.69
2022-08-22T03:30:07.293Z,12.69
2022-08-22T03:32:55.023Z,12.64
2022-08-22T03:35:34.862Z,12.65
2022-08-22T03:38:19.853Z,12.58
2022-08-22T03:41:04.152Z,12.43
2022-08-22T03:43:53.957Z,12.50
2022-08-22T03:47:00.055Z,12.44
2022-08-22T03:49:52.980Z,12.45
2022-08-22T03:53:18.548Z,12.43
2022-08-22T03:56:21.386Z,12.46
2022-08-22T03:59:14.838Z,12.43
2022-08-22T04:02:35.837Z,12.46
2022-08-22T04:05:54.304Z,12.41
2022-08-22T04:08:43.871Z,12.47
2022-08-22T04:11:48.331Z,12.42
2022-08-22T04:14:40.425Z,12.43
2022-08-22T04:17:27.706Z,12.39
2022-08-22T04:20:29.298Z,12.45
2022-08-22T04:23:20.565Z,12.41
2022-08-22T04:25:54.496Z,12.49
2022-08-22T04:28:31.332Z,12.35
2022-08-22T04:31:06.084Z,12.30
2022-08-22T04:33:41.161Z,12.32
2022-08-22T04:36:14.500Z,12.27
2022-08-22T04:38:47.722Z,12.35
2022-08-22T04:41:20.902Z,12.37
2022-08-22T04:43:55.198Z,12.42
2022-08-22T04:46:37.131Z,12.21
2022-08-22T04:49:08.901Z,12.50
2022-08-22T04:51:41.480Z,12.52
2022-08-22T04:54:25.243Z,12.62
2022-08-22T04:57:07.732Z,12.73
2022-08-22T04:59:37.406Z,12.75
2022-08-22T05:02:11.112Z,12.80
2022-08-22T05:04:42.120Z,12.88
2022-08-22T05:07:16.005Z,12.83
2022-08-22T05:09:49.531Z,13.13
2022-08-22T05:12:27.984Z,13.08
2022-08-22T05:15:03.775Z,13.13
2022-08-22T05:17:34.017Z,13.59
2022-08-22T05:20:07.926Z,13.74
2022-08-22T05:22:41.511Z,13.90
2022-08-22T05:25:13.617Z,14.07
2022-08-22T05:27:45.607Z,14.25
2022-08-22T05:30:17.015Z,14.39
2022-08-22T05:32:53.076Z,14.60
2022-08-22T05:35:30.523Z,14.79
2022-08-22T05:37:58.758Z,14.97
2022-08-22T05:40:29.088Z,15.16
2022-08-22T05:42:59.096Z,15.36
2022-08-22T05:45:28.832Z,15.46
2022-08-22T05:48:05.195Z,15.64
2022-08-22T05:50:38.067Z,15.79
2022-08-22T05:53:10.217Z,15.77
2022-08-22T05:55:51.413Z,16.07
2022-08-22T05:58:38.316Z,16.28
2022-08-22T06:01:18.159Z,16.35
2022-08-22T06:04:00.322Z,16.71
2022-08-22T06:06:31.173Z,16.81
2022-08-22T06:09:03.935Z,16.72
2022-08-22T06:11:40.053Z,16.98
2022-08-22T06:14:19.100Z,17.33
2022-08-22T06:17:01.407Z,17.52
2022-08-22T06:19:31.270Z,17.62
2022-08-22T06:21:59.394Z,17.89
2022-08-22T06:24:28.821Z,18.05
2022-08-22T06:27:05.163Z,18.11
2022-08-22T06:29:36.291Z,18.03
2022-08-22T06:32:12.652Z,18.06
2022-08-22T06:34:45.932Z,18.02
2022-08-22T06:37:21.285Z,17.91
2022-08-22T06:39:53.169Z,17.65
2022-08-22T06:42:25.938Z,17.93
2022-08-22T06:44:58.367Z,17.94
2022-08-22T06:47:31.039Z,17.89
2022-08-22T06:50:03.832Z,17.98
2022-08-22T06:52:36.060Z,18.06
2022-08-22T06:55:08.244Z,18.17
2022-08-22T06:57:38.887Z,18.27
2022-08-22T07:00:11.731Z,18.35
2022-08-22T07:02:43.535Z,18.30
2022-08-22T07:05:22.735Z,18.37
2022-08-22T07:07:51.336Z,18.52
2022-08-22T07:10:22.640Z,18.64
2022-08-22T07:12:53.580Z,18.83
2022-08-22T07:15:24.993Z,18.71
2022-08-22T07:18:00.256Z,18.65
2022-08-22T07:20:35.183Z,18.97
2022-08-22T07:23:07.783Z,19.19
2022-08-22T07:25:51.731Z,19.39
2022-08-22T07:28:37.128Z,19.55
2022-08-22T07:31:28.315Z,19.50
2022-08-22T07:34:13.941Z,19.56
2022-08-22T07:36:51.015Z,19.62
2022-08-22T07:39:28.489Z,19.84
2022-08-22T07:42:07.104Z,20.12
2022-08-22T07:44:43.414Z,20.14
2022-08-22T07:47:18.040Z,20.57
2022-08-22T07:49:58.726Z,20.86
2022-08-22T07:52:37.641Z,21.01
2022-08-22T07:55:21.058Z,20.42
2022-08-22T07:57:55.908Z,20.77
2022-08-22T08:00:25.301Z,20.92
2022-08-22T08:02:58.243Z,21.17
2022-08-22T08:05:30.387Z,21.56
2022-08-22T08:08:15.695Z,21.68
2022-08-22T08:10:43.892Z,21.98
2022-08-22T08:13:17.653Z,21.84
2022-08-22T08:15:46.694Z,21.98
2022-08-22T08:18:19.398Z,22.13
2022-08-22T08:20:51.967Z,21.93
2022-08-22T08:23:23.544Z,22.60
2022-08-22T08:26:01.409Z,22.83
2022-08-22T08:28:35.117Z,23.34
2022-08-22T08:31:20.820Z,23.77
2022-08-22T08:33:51.456Z,24.04
2022-08-22T08:36:37.162Z,23.93
2022-08-22T08:39:16.845Z,24.07
2022-08-22T08:42:02.801Z,24.12
2022-08-22T08:44:51.229Z,24.52
2022-08-22T08:47:43.324Z,24.74
2022-08-22T08:50:45.835Z,24.91
2022-08-22T08:53:35.360Z,24.04
2022-08-22T08:56:16.602Z,23.84
2022-08-22T08:58:55.765Z,24.75
2022-08-22T09:01:59.859Z,24.59
2022-08-22T09:04:46.548Z,24.88
2022-08-22T09:07:39.648Z,25.56
2022-08-22T09:10:22.239Z,25.75
2022-08-22T09:13:13.112Z,26.15
2022-08-22T09:16:05.179Z,25.92
2022-08-22T09:19:13.046Z,26.00
2022-08-22T09:22:14.339Z,25.99
2022-08-22T09:25:06.050Z,25.88
2022-08-22T09:27:37.225Z,25.78
2022-08-22T09:30:11.957Z,25.51
2022-08-22T09:32:48.592Z,25.78
2022-08-22T09:35:28.010Z,25.92
2022-08-22T09:38:13.449Z,26.15
2022-08-22T09:40:47.272Z,26.53
2022-08-22T09:43:22.740Z,26.71
2022-08-22T09:46:06.358Z,26.70
2022-08-22T09:48:44.451Z,26.81
2022-08-22T09:51:31.948Z,26.85
2022-08-22T09:54:14.798Z,27.14
2022-08-22T09:56:55.827Z,27.42
2022-08-22T09:59:31.713Z,27.56
2022-08-22T10:02:15.499Z,27.45
2022-08-22T10:04:47.933Z,27.72
2022-08-22T10:07:43.971Z,27.25
2022-08-22T10:10:26.243Z,27.85
2022-08-22T10:13:01.904Z,28.32
2022-08-22T10:15:38.390Z,28.57
2022-08-22T10:18:19.561Z,28.59
2022-08-22T10:20:57.925Z,28.35
2022-08-22T10:23:35.086Z,28.09
2022-08-22T10:26:23.160Z,27.24
2022-08-22T10:28:57.678Z,27.82
2022-08-22T10:31:45.107Z,28.01
2022-08-22T10:34:30.560Z,28.05
2022-08-22T10:37:10.392Z,28.27
2022-08-22T10:39:45.013Z,28.32
2022-08-22T10:42:27.869Z,28.50
2022-08-22T10:45:23.774Z,26.88
2022-08-22T10:48:43.319Z,27.15
2022-08-22T10:51:21.179Z,27.50
2022-08-22T10:54:01.379Z,28.41
2022-08-22T10:56:36.064Z,28.43
2022-08-22T10:59:18.965Z,28.74
2022-08-22T11:02:02.073Z,29.02
2022-08-22T11:04:48.247Z,29.17
2022-08-22T11:07:40.486Z,29.03
2022-08-22T11:10:24.904Z,28.86
2022-08-22T11:13:10.178Z,28.96
2022-08-22T11:15:57.532Z,29.19
2022-08-22T11:18:57.877Z,29.68
2022-08-22T11:21:43.984Z,30.08
2022-08-22T11:24:55.923Z,29.85
2022-08-22T11:27:39.831Z,29.80
2022-08-22T11:30:18.152Z,29.62
2022-08-22T11:33:46.115Z,30.12
2022-08-22T11:36:26.211Z,30.30
2022-08-22T11:39:03.630Z,30.25
2022-08-22T11:41:43.618Z,30.68
2022-08-22T11:44:18.104Z,30.79
2022-08-22T11:46:49.151Z,29.79
2022-08-22T11:49:40.597Z,30.21
2022-08-22T11:52:26.917Z,29.99
2022-08-22T11:55:15.550Z,29.97
2022-08-22T11:57:48.436Z,29.49
2022-08-22T12:00:31.957Z,29.19
2022-08-22T12:03:43.832Z,29.62
2022-08-22T12:06:34.695Z,28.85
2022-08-22T12:09:22.172Z,29.26
2022-08-22T12:12:04.729Z,29.31
2022-08-22T12:14:39.317Z,29.20
2022-08-22T12:17:55.576Z,29.20
2022-08-22T12:20:35.056Z,29.29
2022-08-22T12:23:43.216Z,29.10
2022-08-22T12:26:22.226Z,28.86
2022-08-22T12:29:04.590Z,28.73
2022-08-22T12:32:27.616Z,28.44
2022-08-22T12:35:14.297Z,28.33
2022-08-22T12:38:03.658Z,28.19
2022-08-22T12:40:56.611Z,27.18
2022-08-22T12:43:42.835Z,27.97
2022-08-22T12:46:17.848Z,27.92
2022-08-22T12:49:00.514Z,28.03
2022-08-22T12:51:46.749Z,27.69
2022-08-22T12:54:40.960Z,27.90
2022-08-22T12:57:24.373Z,27.92
2022-08-22T12:59:58.061Z,27.77
2022-08-22T13:02:29.803Z,28.10
2022-08-22T13:05:03.618Z,28.49
2022-08-22T13:07:36.223Z,28.47
2022-08-22T13:10:37.549Z,28.80
2022-08-22T13:13:12.137Z,28.90
2022-08-22T13:15:46.720Z,28.80
2022-08-22T13:18:30.718Z,28.76
2022-08-22T13:21:05.503Z,28.15
2022-08-22T13:23:39.644Z,28.12
2022-08-22T13:26:31.609Z,28.14
2022-08-22T13:31:59.209Z,28.29
2022-08-22T13:34:39.786Z,28.36
2022-08-22T13:37:16.749Z,27.99
2022-08-22T13:39:49.306Z,28.19
2022-08-22T13:42:20.394Z,28.13
2022-08-22T13:45:02.402Z,28.01
2022-08-22T13:47:32.479Z,28.17
2022-08-22T13:50:11.230Z,28.05
2022-08-22T13:52:45.814Z,27.91
2022-08-22T13:55:28.855Z,28.04
2022-08-22T13:58:06.724Z,28.19
2022-08-22T14:01:25.418Z,28.29
2022-08-22T14:04:01.158Z,28.08
2022-08-22T14:06:41.443Z,28.13
2022-08-22T14:09:29.574Z,28.12
2022-08-22T14:12:11.948Z,28.04
2022-08-22T14:14:43.208Z,28.29
2022-08-22T14:17:18.228Z,28.18
2022-08-22T14:19:59.374Z,28.16
2022-08-22T14:22:35.116Z,28.24
2022-08-22T14:25:09.197Z,28.17
2022-08-22T14:27:57.839Z,28.17
2022-08-22T14:30:29.529Z,28.20
2022-08-22T14:33:02.461Z,28.14
2022-08-22T14:35:37.885Z,28.17
2022-08-22T14:38:30.312Z,28.07
2022-08-22T14:41:05.392Z,28.09
2022-08-22T14:43:52.667Z,28.18
2022-08-22T14:46:26.564Z,28.26
2022-08-22T14:49:13.650Z,28.53
2022-08-22T14:51:48.019Z,28.74
2022-08-22T14:54:21.924Z,29.06
2022-08-22T14:56:54.748Z,29.13
2022-08-22T14:59:35.330Z,29.05
2022-08-22T15:02:07.815Z,29.12
2022-08-22T15:04:39.027Z,29.19
2022-08-22T15:07:07.868Z,29.15
2022-08-22T15:09:40.427Z,29.10
2022-08-22T15:12:24.671Z,29.18
2022-08-22T15:14:55.731Z,29.12
2022-08-22T15:17:40.803Z,28.79
2022-08-22T15:20:27.795Z,28.85
2022-08-22T15:22:59.059Z,28.51
2022-08-22T15:25:31.248Z,28.54
2022-08-22T15:28:05.128Z,28.24
2022-08-22T15:30:44.562Z,28.41
2022-08-22T15:33:17.164Z,28.21
2022-08-22T15:35:48.827Z,28.18
2022-08-22T15:38:29.437Z,28.17
2022-08-22T15:41:17.958Z,28.18
2022-08-22T15:43:49.930Z,28.14
2022-08-22T15:46:29.798Z,28.21
2022-08-22T15:49:01.539Z,28.09
2022-08-22T15:51:37.518Z,28.02
2022-08-22T15:54:16.243Z,27.90
2022-08-22T15:57:16.263Z,27.78
2022-08-22T15:59:55.536Z,27.77
2022-08-22T16:02:35.249Z,27.79
2022-08-22T16:05:23.660Z,27.63
2022-08-22T16:08:03.612Z,27.42
2022-08-22T16:10:37.711Z,27.29
2022-08-22T16:13:34.801Z,27.15
2022-08-22T16:16:11.564Z,27.26
2022-08-22T16:19:22.155Z,27.14
2022-08-22T16:22:12.929Z,27.24
2022-08-22T16:25:04.131Z,27.26
2022-08-22T16:27:32.539Z,27.18
2022-08-22T16:30:06.493Z,27.15
2022-08-22T16:32:36.997Z,27.11
2022-08-22T16:35:05.183Z,26.97
2022-08-22T16:37:51.036Z,27.04
2022-08-22T16:40:26.321Z,26.96
2022-08-22T16:43:16.922Z,26.96
2022-08-22T16:45:47.283Z,26.99
2022-08-22T16:48:33.401Z,26.89
2022-08-22T16:51:12.634Z,26.81
2022-08-22T16:54:13.519Z,26.82
2022-08-22T16:56:57.376Z,26.74
2022-08-22T16:59:39.286Z,26.56
2022-08-22T17:02:32.302Z,26.57
2022-08-22T17:05:18.450Z,26.40
2022-08-22T17:08:01.965Z,26.36
2022-08-22T17:10:46.877Z,26.16
2022-08-22T17:13:33.016Z,26.32
2022-08-22T17:16:29.946Z,26.21
2022-08-22T17:19:14.155Z,26.25
2022-08-22T17:21:50.733Z,26.13
2022-08-22T17:24:33.589Z,26.18
2022-08-22T17:27:07.712Z,26.24
2022-08-22T17:29:45.366Z,26.22
2022-08-22T17:32:21.789Z,26.27
2022-08-22T17:34:58.203Z,26.15
2022-08-22T17:37:45.392Z,26.18
2022-08-22T17:40:29.600Z,26.18
2022-08-22T17:43:14.665Z,26.08
2022-08-22T17:46:00.181Z,26.04
2022-08-22T17:48:32.544Z,25.94
2022-08-22T17:51:12.000Z,25.92
2022-08-22T17:53:49.968Z,25.77
2022-08-22T17:56:23.413Z,25.67
2022-08-22T17:59:02.944Z,25.58
2022-08-22T18:01:49.997Z,25.46
2022-08-22T18:04:26.068Z,25.26
2022-08-22T18:07:04.150Z,25.09
2022-08-22T18:09:41.227Z,24.94
2022-08-22T18:12:19.578Z,24.78
2022-08-22T18:14:53.011Z,24.58
2022-08-22T18:17:26.905Z,24.58
2022-08-22T18:20:03.773Z,24.49
2022-08-22T18:22:42.396Z,24.33
2022-08-22T18:25:28.286Z,24.23
2022-08-22T18:28:00.908Z,24.13
2022-08-22T18:30:32.069Z,23.98
2022-08-22T18:33:05.165Z,23.85
2022-08-22T18:35:42.509Z,23.74
2022-08-22T18:38:23.194Z,23.44
2022-08-22T18:40:58.225Z,23.35
2022-08-22T18:43:36.391Z,22.96
2022-08-22T18:46:26.700Z,22.76
2022-08-22T18:49:14.609Z,22.80
2022-08-22T18:51:42.878Z,22.78
2022-08-22T18:54:37.174Z,22.69
2022-08-22T18:57:30.497Z,22.57
2022-08-22T19:00:10.078Z,22.44
2022-08-22T19:03:10.926Z,22.23
2022-08-22T19:06:07.260Z,22.25
2022-08-22T19:08:53.638Z,22.12
2022-08-22T19:11:37.224Z,22.17
2022-08-22T19:14:20.593Z,22.02
2022-08-22T19:20:44.330Z,21.86
2022-08-22T19:23:54.950Z,21.87
2022-08-22T19:26:52.547Z,21.63
2022-08-22T19:29:56.888Z,21.93
2022-08-22T19:32:59.044Z,21.81
2022-08-22T19:35:30.832Z,21.82
2022-08-22T19:38:00.738Z,21.88
2022-08-22T19:40:53.249Z,21.90
2022-08-22T19:43:32.762Z,21.95
2022-08-22T19:46:05.022Z,21.85
2022-08-22T19:48:43.464Z,21.78
2022-08-22T19:51:16.116Z,21.73
2022-08-22T19:53:58.727Z,21.64
2022-08-22T19:56:37.948Z,21.58
2022-08-22T19:59:16.568Z,21.52
2022-08-22T20:01:56.166Z,21.42
2022-08-22T20:04:55.155Z,21.36
2022-08-22T20:07:33.819Z,21.26
2022-08-22T20:10:14.445Z,21.24
2022-08-22T20:13:05.749Z,21.24
2022-08-22T20:15:59.279Z,21.20
2022-08-22T20:19:14.820Z,21.17
2022-08-22T20:22:02.082Z,21.17
2022-08-22T20:24:39.728Z,21.17
2022-08-22T20:27:15.485Z,21.02
2022-08-22T20:29:49.662Z,21.13
2022-08-22T20:32:19.995Z,21.11
2022-08-22T20:34:54.821Z,21.10
2022-08-22T20:37:40.302Z,21.09
2022-08-22T20:40:54.746Z,21.00
2022-08-22T20:43:21.749Z,20.94
2022-08-22T20:46:02.989Z,20.84
2022-08-22T20:48:39.267Z,20.78
2022-08-22T20:51:10.080Z,20.71
2022-08-22T20:53:37.841Z,20.63
2022-08-22T20:56:08.159Z,20.61
2022-08-22T20:58:38.527Z,20.61
2022-08-22T21:01:11.546Z,20.47
2022-08-22T21:03:43.931Z,20.36
2022-08-22T21:06:16.832Z,20.27
2022-08-22T21:08:46.685Z,20.30
2022-08-22T21:11:39.693Z,20.32
2022-08-22T21:14:19.151Z,20.33
2022-08-22T21:16:46.879Z,20.33
2022-08-22T21:19:19.474Z,20.33
2022-08-22T21:21:48.735Z,20.36
2022-08-22T21:24:16.776Z,20.38
2022-08-22T21:26:50.268Z,20.47
2022-08-22T21:29:26.621Z,20.45
2022-08-22T21:32:08.101Z,20.50
2022-08-22T21:34:42.301Z,20.51
2022-08-22T21:37:15.376Z,20.48
2022-08-22T21:39:46.538Z,20.45
2022-08-22T21:42:23.633Z,20.40
2022-08-22T21:44:57.386Z,20.42
2022-08-22T21:47:32.732Z,20.38
2022-08-22T21:50:03.190Z,20.33
2022-08-22T21:52:34.913Z,20.27
2022-08-22T21:55:24.572Z,20.18
2022-08-22T21:58:07.908Z,20.17
2022-08-22T22:00:49.473Z,19.88
2022-08-22T22:03:19.856Z,20.03
2022-08-22T22:05:49.333Z,19.97
2022-08-22T22:08:18.961Z,19.92
2022-08-22T22:10:48.930Z,19.80
2022-08-22T22:13:17.948Z,19.81
2022-08-22T22:15:48.662Z,19.85
2022-08-22T22:18:19.920Z,19.80
2022-08-22T22:20:48.438Z,19.76
2022-08-22T22:23:18.538Z,19.68
2022-08-22T22:25:47.115Z,19.64
2022-08-22T22:28:18.195Z,19.72
2022-08-22T22:30:50.328Z,19.78
2022-08-22T22:33:18.739Z,19.82
2022-08-22T22:35:46.546Z,19.98
2022-08-22T22:38:14.750Z,19.92
2022-08-22T22:40:44.059Z,19.86
2022-08-22T22:43:12.370Z,19.87
2022-08-22T22:45:40.913Z,19.83
2022-08-22T22:48:09.026Z,19.77
2022-08-22T22:50:40.594Z,19.77
2022-08-22T22:53:09.593Z,19.64
2022-08-22T22:55:41.690Z,19.49
2022-08-22T22:58:13.489Z,19.36
2022-08-22T23:00:44.319Z,19.31
2022-08-22T23:03:12.916Z,19.19
2022-08-22T23:05:40.720Z,19.09
2022-08-22T23:08:08.717Z,18.98
2022-08-22T23:10:36.513Z,18.92
2022-08-22T23:13:06.655Z,18.85
2022-08-22T23:15:36.016Z,18.67
2022-08-22T23:18:03.765Z,18.62
2022-08-22T23:20:31.591Z,18.56
2022-08-22T23:23:00.675Z,18.41
2022-08-22T23:25:28.378Z,18.31
2022-08-22T23:27:56.727Z,18.21
2022-08-22T23:30:24.540Z,18.11
2022-08-22T23:32:53.841Z,17.97
2022-08-22T23:35:21.631Z,17.92
2022-08-22T23:37:49.341Z,17.88
2022-08-22T23:40:17.187Z,17.90
2022-08-22T23:42:45.319Z,17.66
2022-08-22T23:45:13.084Z,17.67
2022-08-22T23:47:41.038Z,17.65
2022-08-22T23:50:10.696Z,17.63
2022-08-22T23:52:38.416Z,17.60
2022-08-22T23:55:07.021Z,17.55
2022-08-22T23:57:34.746Z,17.56
